createdAt,value
2018-08-17T00:00:51.289Z,10.10
2018-08-17T00:03:56.650Z,9.80
2018-08-17T00:07:02.373Z,8.17
2018-08-17T00:10:08.818Z,8.87
2018-08-17T00:13:14.188Z,8.80
2018-08-17T00:16:19.541Z,8.67
2018-08-17T00:19:25.100Z,8.53
2018-08-17T00:22:30.482Z,8.20
2018-08-17T00:25:36.549Z,7.87
2018-08-17T00:28:41.924Z,9.00
2018-08-17T00:31:47.837Z,8.47
2018-08-17T00:34:53.257Z,8.37
2018-08-17T00:37:58.664Z,8.30
2018-08-17T00:41:04.071Z,8.57
2018-08-17T00:44:09.513Z,8.70
2018-08-17T00:47:14.862Z,8.83
2018-08-17T00:50:20.359Z,8.10
2018-08-17T00:53:25.781Z,8.90
2018-08-17T00:56:31.149Z,8.07
2018-08-17T00:59:36.589Z,8.47
2018-08-17T01:02:41.958Z,8.37
2018-08-17T01:05:47.317Z,8.10
2018-08-17T01:08:52.683Z,8.20
2018-08-17T01:11:58.138Z,8.40
2018-08-17T01:15:03.529Z,8.00
2018-08-17T01:18:09.347Z,8.47
2018-08-17T01:21:14.890Z,8.57
2018-08-17T01:24:20.261Z,8.13
2018-08-17T01:27:25.626Z,8.17
2018-08-17T01:30:31.061Z,8.67
2018-08-17T01:33:36.465Z,9.20
2018-08-17T01:36:41.846Z,8.93
2018-08-17T01:39:47.505Z,8.77
2018-08-17T01:42:52.855Z,9.30
2018-08-17T01:45:58.491Z,8.53
2018-08-17T01:49:04.060Z,8.90
2018-08-17T01:52:09.582Z,9.40
2018-08-17T01:55:14.993Z,8.00
2018-08-17T01:58:20.346Z,8.37
2018-08-17T02:01:25.774Z,9.70
2018-08-17T02:04:31.218Z,9.53
2018-08-17T02:07:37.076Z,8.70
2018-08-17T02:10:42.509Z,8.40
2018-08-17T02:13:47.878Z,8.47
2018-08-17T02:16:53.258Z,8.63
2018-08-17T02:19:58.757Z,9.30
2018-08-17T02:23:04.106Z,9.60
2018-08-17T02:26:09.875Z,10.27
2018-08-17T02:29:15.250Z,10.07
2018-08-17T02:32:20.590Z,10.17
2018-08-17T02:35:25.971Z,10.00
2018-08-17T02:38:31.338Z,9.33
2018-08-17T02:41:36.834Z,9.17
2018-08-17T02:44:42.206Z,10.13
2018-08-17T02:47:47.555Z,9.33
2018-08-17T02:50:53.433Z,9.57
2018-08-17T02:53:58.813Z,9.43
2018-08-17T02:57:04.196Z,9.43
2018-08-17T03:00:09.725Z,8.80
2018-08-17T03:03:15.071Z,9.17
2018-08-17T03:06:21.088Z,8.90
2018-08-17T03:09:26.853Z,9.17
2018-08-17T03:12:32.241Z,10.77
2018-08-17T03:15:37.739Z,9.77
2018-08-17T03:18:43.129Z,8.73
2018-08-17T03:21:48.519Z,9.07
2018-08-17T03:24:53.869Z,8.90
2018-08-17T03:27:59.206Z,9.40
2018-08-17T03:31:04.901Z,8.93
2018-08-17T03:34:10.230Z,9.63
2018-08-17T03:37:15.630Z,9.57
2018-08-17T03:40:21.305Z,9.23
2018-08-17T03:43:26.639Z,9.20
2018-08-17T03:46:32.003Z,9.33
2018-08-17T03:49:37.430Z,10.93
2018-08-17T03:52:42.882Z,11.37
2018-08-17T03:55:48.253Z,10.20
2018-08-17T03:58:53.721Z,9.50
2018-08-17T04:01:59.270Z,9.83
2018-08-17T04:05:05.335Z,9.87
2018-08-17T04:08:10.714Z,9.83
2018-08-17T04:11:16.103Z,9.90
2018-08-17T04:14:21.569Z,10.37
2018-08-17T04:17:26.967Z,9.87
2018-08-17T04:20:32.498Z,10.20
2018-08-17T04:23:37.858Z,9.77
2018-08-17T04:26:44.026Z,10.23
2018-08-17T04:29:49.407Z,9.50
2018-08-17T04:32:54.862Z,9.50
2018-08-17T04:36:00.234Z,10.17
2018-08-17T04:39:07.050Z,10.23
2018-08-17T04:42:12.443Z,10.53
2018-08-17T04:45:18.149Z,10.07
2018-08-17T04:48:23.541Z,10.33
2018-08-17T04:51:29.086Z,11.23
2018-08-17T04:54:34.510Z,12.83
2018-08-17T04:57:39.913Z,12.23
2018-08-17T05:00:45.332Z,11.70
2018-08-17T05:03:50.718Z,11.10
2018-08-17T05:06:56.571Z,11.83
2018-08-17T05:10:06.631Z,10.83
2018-08-17T05:13:14.134Z,13.67
2018-08-17T05:16:19.546Z,14.47
2018-08-17T05:19:27.565Z,11.53
2018-08-17T05:22:32.938Z,13.27
2018-08-17T05:25:38.295Z,13.33
2018-08-17T05:28:43.673Z,14.97
2018-08-17T05:31:49.130Z,14.07
2018-08-17T05:34:54.486Z,15.40
2018-08-17T05:37:59.863Z,13.30
2018-08-17T05:41:05.798Z,14.30
2018-08-17T05:44:11.159Z,14.13
2018-08-17T05:47:16.542Z,13.33
2018-08-17T05:50:22.353Z,14.63
2018-08-17T05:53:27.718Z,15.07
2018-08-17T05:56:33.076Z,15.07
2018-08-17T05:59:38.506Z,17.83
2018-08-17T06:02:43.906Z,15.27
2018-08-17T06:05:49.419Z,14.87
2018-08-17T06:08:54.813Z,14.83
2018-08-17T06:12:00.322Z,15.00
2018-08-17T06:15:06.677Z,16.03
2018-08-17T06:18:12.506Z,16.60
2018-08-17T06:21:17.949Z,17.27
2018-08-17T06:24:23.330Z,18.03
2018-08-17T06:27:28.734Z,15.37
2018-08-17T06:30:34.194Z,15.67
2018-08-17T06:33:39.931Z,14.33
2018-08-17T06:36:45.318Z,14.97
2018-08-17T06:39:50.806Z,14.23
2018-08-17T06:42:56.242Z,13.57
2018-08-17T06:46:01.591Z,12.70
2018-08-17T06:49:07.054Z,13.37
2018-08-17T06:52:12.446Z,11.37
2018-08-17T06:55:18.242Z,12.70
2018-08-17T06:58:23.650Z,10.13
2018-08-17T07:01:29.094Z,10.70
2018-08-17T07:04:34.484Z,10.80
2018-08-17T07:07:40.201Z,10.53
2018-08-17T07:10:45.629Z,9.50
2018-08-17T07:13:51.163Z,9.00
2018-08-17T07:16:56.547Z,8.77
2018-08-17T07:20:01.958Z,9.20
2018-08-17T07:23:08.290Z,7.80
2018-08-17T07:26:13.655Z,7.57
2018-08-17T07:29:19.029Z,8.13
2018-08-17T07:32:24.378Z,6.57
2018-08-17T07:35:30.107Z,7.33
2018-08-17T07:38:35.744Z,8.30
2018-08-17T07:41:41.175Z,8.57
2018-08-17T07:44:46.733Z,7.57
2018-08-17T07:47:52.263Z,6.40
2018-08-17T07:50:57.831Z,5.73
2018-08-17T07:54:03.378Z,5.17
2018-08-17T07:57:08.950Z,4.80
2018-08-17T08:00:15.079Z,5.03
2018-08-17T08:03:20.498Z,4.87
2018-08-17T08:06:26.237Z,3.60
2018-08-17T08:09:31.605Z,3.27
2018-08-17T08:12:36.990Z,2.67
2018-08-17T08:15:42.723Z,2.57
2018-08-17T08:18:48.090Z,3.13
2018-08-17T08:21:53.785Z,2.60
2018-08-17T08:24:59.165Z,3.00
2018-08-17T08:28:05.228Z,2.47
2018-08-17T08:31:10.611Z,2.70
2018-08-17T08:34:15.969Z,2.00
2018-08-17T08:37:21.401Z,1.83
2018-08-17T08:40:26.808Z,1.70
2018-08-17T08:43:32.172Z,1.70
2018-08-17T08:46:38.340Z,1.90
2018-08-17T08:49:43.729Z,2.00
2018-08-17T08:52:48.074Z,1.83
2018-08-17T08:55:53.271Z,1.87
2018-08-17T08:58:58.898Z,2.33
2018-08-17T09:02:04.609Z,2.30
2018-08-17T09:05:10.213Z,2.40
2018-08-17T09:08:15.896Z,2.20
2018-08-17T09:11:21.497Z,2.30
2018-08-17T09:14:27.621Z,2.27
2018-08-17T09:17:33.017Z,2.40
2018-08-17T09:20:38.488Z,2.10
2018-08-17T09:23:44.068Z,1.80
2018-08-17T09:26:49.454Z,2.50
2018-08-17T09:29:55.174Z,2.77
2018-08-17T09:33:00.655Z,2.40
2018-08-17T09:36:06.113Z,2.37
2018-08-17T09:39:11.694Z,1.93
2018-08-17T09:42:17.044Z,2.27
2018-08-17T09:45:22.422Z,1.73
2018-08-17T09:48:27.822Z,2.17
2018-08-17T09:51:36.447Z,2.10
2018-08-17T09:54:41.819Z,2.23
2018-08-17T09:57:47.163Z,2.63
2018-08-17T10:00:57.838Z,2.87
2018-08-17T10:04:08.586Z,2.77
2018-08-17T10:07:19.421Z,2.90
2018-08-17T10:10:25.872Z,2.80
2018-08-17T10:13:31.430Z,2.60
2018-08-17T10:16:36.816Z,3.13
2018-08-17T10:19:42.232Z,3.13
2018-08-17T10:22:47.841Z,3.00
2018-08-17T10:25:53.645Z,2.70
2018-08-17T10:29:01.523Z,3.20
2018-08-17T10:32:07.281Z,3.50
2018-08-17T10:35:16.739Z,3.10
2018-08-17T10:38:22.146Z,3.50
2018-08-17T10:41:27.582Z,2.30
2018-08-17T10:44:33.006Z,3.00
2018-08-17T10:47:38.506Z,2.60
2018-08-17T10:50:43.893Z,2.83
2018-08-17T10:53:49.251Z,3.10
2018-08-17T10:56:54.862Z,3.63
2018-08-17T11:00:00.374Z,3.00
2018-08-17T11:03:05.822Z,3.27
2018-08-17T11:06:11.239Z,2.73
2018-08-17T11:09:16.589Z,3.30
2018-08-17T11:12:22.014Z,2.70
2018-08-17T11:15:27.398Z,2.73
2018-08-17T11:18:33.035Z,2.47
2018-08-17T11:21:38.418Z,2.50
2018-08-17T11:24:43.770Z,2.17
2018-08-17T11:27:50.639Z,2.17
2018-08-17T11:30:56.038Z,2.67
2018-08-17T11:34:01.410Z,3.53
2018-08-17T11:37:07.183Z,3.40
2018-08-17T11:40:13.318Z,3.50
2018-08-17T11:43:18.689Z,2.67
2018-08-17T11:46:24.071Z,2.67
2018-08-17T11:49:29.953Z,2.73
2018-08-17T11:52:39.374Z,3.73
2018-08-17T11:55:44.720Z,2.57
2018-08-17T11:58:50.108Z,2.60
2018-08-17T12:01:55.756Z,2.60
2018-08-17T12:05:01.275Z,2.90
2018-08-17T12:08:07.374Z,2.70
2018-08-17T12:11:12.887Z,2.80
2018-08-17T12:14:18.243Z,2.70
2018-08-17T12:17:23.699Z,2.77
2018-08-17T12:20:29.066Z,2.90
2018-08-17T12:23:34.530Z,3.17
2018-08-17T12:26:45.186Z,2.47
2018-08-17T12:29:51.273Z,5.73
2018-08-17T12:32:56.646Z,1.90
2018-08-17T12:36:02.010Z,1.80
2018-08-17T12:39:11.389Z,2.00
2018-08-17T12:42:16.862Z,2.10
2018-08-17T12:45:22.254Z,1.90
2018-08-17T12:48:27.653Z,2.10
2018-08-17T12:51:33.063Z,2.57
2018-08-17T12:54:38.442Z,2.30
2018-08-17T12:57:43.810Z,2.50
2018-08-17T13:00:49.185Z,2.50
2018-08-17T13:03:54.754Z,2.77
2018-08-17T13:07:01.010Z,2.60
2018-08-17T13:10:07.938Z,2.57
2018-08-17T13:13:13.317Z,2.70
2018-08-17T13:16:18.712Z,2.53
2018-08-17T13:19:24.129Z,2.87
2018-08-17T13:22:29.501Z,2.57
2018-08-17T13:25:34.893Z,2.73
2018-08-17T13:28:40.254Z,2.70
2018-08-17T13:31:45.757Z,2.87
2018-08-17T13:34:51.123Z,3.13
2018-08-17T13:37:56.537Z,3.00
2018-08-17T13:41:01.939Z,3.57
2018-08-17T13:44:10.002Z,2.80
2018-08-17T13:47:15.406Z,3.67
2018-08-17T13:50:20.877Z,3.40
2018-08-17T13:53:26.372Z,3.37
2018-08-17T13:56:31.730Z,3.50
2018-08-17T13:59:37.105Z,4.27
2018-08-17T14:02:42.522Z,3.63
2018-08-17T14:05:48.218Z,3.80
2018-08-17T14:08:53.847Z,3.80
2018-08-17T14:11:59.189Z,3.17
2018-08-17T14:15:05.106Z,4.57
2018-08-17T14:18:11.262Z,3.90
2018-08-17T14:21:16.673Z,4.03
2018-08-17T14:24:22.035Z,3.90
2018-08-17T14:27:27.394Z,4.33
2018-08-17T14:30:32.770Z,4.73
2018-08-17T14:33:38.549Z,4.27
2018-08-17T14:36:44.609Z,4.37
2018-08-17T14:39:49.986Z,4.73
2018-08-17T14:42:55.565Z,5.50
2018-08-17T14:46:00.954Z,6.30
2018-08-17T14:49:06.339Z,5.23
2018-08-17T14:52:11.834Z,5.50
2018-08-17T14:55:17.281Z,7.03
2018-08-17T14:58:22.669Z,7.33
2018-08-17T15:01:28.396Z,7.03
2018-08-17T15:04:34.106Z,6.30
2018-08-17T15:07:39.527Z,6.40
2018-08-17T15:10:45.102Z,6.30
2018-08-17T15:13:50.562Z,4.67
2018-08-17T15:16:56.271Z,3.67
2018-08-17T15:20:01.790Z,3.10
2018-08-17T15:23:08.658Z,3.40
2018-08-17T15:26:14.394Z,2.57
2018-08-17T15:29:19.787Z,2.83
2018-08-17T15:32:25.315Z,2.97
2018-08-17T15:35:30.911Z,2.73
2018-08-17T15:38:36.631Z,3.37
2018-08-17T15:41:44.559Z,2.60
2018-08-17T15:44:49.934Z,3.60
2018-08-17T15:47:55.332Z,2.60
2018-08-17T15:51:00.725Z,2.17
2018-08-17T15:54:06.361Z,2.67
2018-08-17T15:57:14.658Z,3.30
2018-08-17T16:00:20.951Z,2.30
2018-08-17T16:03:26.513Z,2.03
2018-08-17T16:06:32.250Z,2.13
2018-08-17T16:09:37.668Z,1.83
2018-08-17T16:12:43.628Z,2.33
2018-08-17T16:15:49.379Z,2.13
2018-08-17T16:18:54.981Z,2.30
2018-08-17T16:22:00.658Z,2.03
2018-08-17T16:25:07.038Z,2.10
2018-08-17T16:28:12.743Z,2.07
2018-08-17T16:31:18.722Z,2.20
2018-08-17T16:34:24.091Z,1.70
2018-08-17T16:37:30.284Z,2.33
2018-08-17T16:40:53.589Z,2.13
2018-08-17T16:43:58.961Z,3.33
2018-08-17T16:47:04.498Z,2.70
2018-08-17T16:50:10.384Z,2.67
2018-08-17T16:53:16.115Z,3.50
2018-08-17T16:56:21.474Z,2.33
2018-08-17T16:59:26.834Z,2.17
2018-08-17T17:02:32.185Z,2.50
2018-08-17T17:05:37.534Z,2.53
2018-08-17T17:08:42.876Z,2.27
2018-08-17T17:11:48.318Z,2.40
2018-08-17T17:14:54.083Z,2.33
2018-08-17T17:18:05.704Z,2.33
2018-08-17T17:21:11.088Z,1.77
2018-08-17T17:24:17.231Z,1.43
2018-08-17T17:27:22.628Z,1.90
2018-08-17T17:30:53.303Z,1.60
2018-08-17T17:33:58.874Z,1.73
2018-08-17T17:37:04.598Z,1.93
2018-08-17T17:40:10.003Z,1.80
2018-08-17T17:43:15.350Z,1.53
2018-08-17T17:46:20.730Z,1.30
2018-08-17T17:49:26.166Z,1.63
2018-08-17T17:52:32.409Z,1.33
2018-08-17T17:55:46.185Z,1.50
2018-08-17T17:58:55.374Z,1.37
2018-08-17T18:02:00.726Z,1.63
2018-08-17T18:05:06.338Z,1.57
2018-08-17T18:08:16.865Z,1.90
2018-08-17T18:11:22.699Z,1.60
2018-08-17T18:14:28.149Z,1.50
2018-08-17T18:17:33.962Z,1.40
2018-08-17T18:20:39.690Z,1.27
2018-08-17T18:23:56.754Z,1.27
2018-08-17T18:27:02.150Z,1.50
2018-08-17T18:30:07.566Z,2.00
2018-08-17T18:33:12.950Z,1.40
2018-08-17T18:36:18.699Z,1.50
2018-08-17T18:39:24.091Z,1.27
2018-08-17T18:42:29.737Z,1.50
2018-08-17T18:45:35.137Z,1.40
2018-08-17T18:48:40.533Z,1.60
2018-08-17T18:51:46.274Z,1.30
2018-08-17T18:54:51.644Z,1.30
2018-08-17T18:57:57.468Z,1.47
2018-08-17T19:01:03.798Z,1.40
2018-08-17T19:04:09.383Z,1.50
2018-08-17T19:07:14.799Z,1.50
2018-08-17T19:10:20.358Z,1.37
2018-08-17T19:13:25.934Z,1.60
2018-08-17T19:16:31.286Z,1.70
2018-08-17T19:19:37.241Z,1.13
2018-08-17T19:22:45.362Z,1.30
2018-08-17T19:25:50.689Z,1.33
2018-08-17T19:28:56.787Z,1.57
2018-08-17T19:32:02.243Z,1.70
2018-08-17T19:35:07.614Z,1.40
2018-08-17T19:38:13.334Z,1.77
2018-08-17T19:41:18.754Z,1.50
2018-08-17T19:44:24.110Z,1.30
2018-08-17T19:47:29.503Z,1.33
2018-08-17T19:50:35.451Z,1.77
2018-08-17T19:53:40.822Z,1.73
2018-08-17T19:56:46.158Z,1.80
2018-08-17T19:59:51.605Z,1.33
2018-08-17T20:02:56.953Z,1.57
2018-08-17T20:06:02.306Z,2.17
2018-08-17T20:09:09.862Z,1.73
2018-08-17T20:12:15.247Z,1.90
2018-08-17T20:15:21.465Z,1.60
2018-08-17T20:18:26.818Z,2.17
2018-08-17T20:21:32.302Z,2.10
2018-08-17T20:24:37.633Z,1.80
2018-08-17T20:27:44.109Z,1.93
2018-08-17T20:30:49.898Z,2.07
2018-08-17T20:33:55.305Z,1.80
2018-08-17T20:37:00.682Z,1.73
2018-08-17T20:40:06.549Z,1.63
2018-08-17T20:43:11.960Z,1.57
2018-08-17T20:46:17.712Z,1.73
2018-08-17T20:49:23.717Z,2.40
2018-08-17T20:52:29.090Z,2.00
2018-08-17T20:55:34.509Z,2.23
2018-08-17T20:58:39.861Z,2.17
2018-08-17T21:01:45.280Z,2.73
2018-08-17T21:04:50.637Z,2.20
2018-08-17T21:07:56.586Z,2.43
2018-08-17T21:11:02.018Z,2.30
2018-08-17T21:14:07.710Z,2.13
2018-08-17T21:17:13.074Z,2.10
2018-08-17T21:20:20.730Z,1.97
2018-08-17T21:23:26.215Z,1.90
2018-08-17T21:26:43.321Z,2.60
2018-08-17T21:29:49.347Z,3.30
2018-08-17T21:32:54.718Z,2.40
2018-08-17T21:36:00.062Z,2.87
2018-08-17T21:39:16.644Z,2.50
2018-08-17T21:42:22.106Z,2.30
2018-08-17T21:45:27.511Z,2.00
2018-08-17T21:48:33.737Z,2.13
2018-08-17T21:51:39.473Z,2.00
2018-08-17T21:54:44.849Z,2.00
2018-08-17T21:57:50.240Z,2.17
2018-08-17T22:00:56.066Z,1.97
2018-08-17T22:04:01.445Z,2.07
2018-08-17T22:07:12.038Z,2.03
2018-08-17T22:10:17.505Z,2.37
2018-08-17T22:13:33.178Z,2.27
2018-08-17T22:16:38.538Z,2.13
2018-08-17T22:19:43.977Z,2.50
2018-08-17T22:22:49.330Z,2.33
2018-08-17T22:25:54.710Z,1.90
2018-08-17T22:29:00.082Z,2.07
2018-08-17T22:32:05.849Z,2.20
2018-08-17T22:35:11.310Z,2.10
2018-08-17T22:38:16.874Z,2.23
2018-08-17T22:41:22.343Z,1.97
2018-08-17T22:44:27.706Z,2.17
2018-08-17T22:47:33.066Z,2.07
2018-08-17T22:50:38.813Z,2.53
2018-08-17T22:53:44.197Z,1.90
2018-08-17T22:56:51.148Z,2.50
2018-08-17T23:00:15.701Z,2.33
2018-08-17T23:03:21.418Z,2.27
2018-08-17T23:06:27.175Z,2.40
2018-08-17T23:09:33.165Z,2.00
2018-08-17T23:12:38.526Z,2.17
2018-08-17T23:15:43.958Z,2.30
2018-08-17T23:18:49.349Z,2.00
2018-08-17T23:21:55.462Z,2.03
2018-08-17T23:25:00.825Z,2.37
2018-08-17T23:28:06.418Z,2.00
2018-08-17T23:31:12.164Z,2.23
2018-08-17T23:34:17.522Z,2.40
2018-08-17T23:37:22.936Z,2.60
2018-08-17T23:40:29.276Z,2.20
2018-08-17T23:43:34.631Z,2.33
2018-08-17T23:46:39.992Z,2.33
2018-08-17T23:49:45.430Z,2.27
2018-08-17T23:52:50.771Z,2.60
2018-08-17T23:55:56.179Z,2.40
2018-08-17T23:59:01.542Z,2.37
